Terminal Aerodrome Forecast
Issued by NWS

Home | Current Version | Previous Version | Graphics & Text | Print | Product List | Glossary On
Versions: 1 2 3 4 5 6 7 8 9 10 11 12 13 14 15 16 17 18 19 20 21 22 23 24 25 26 27 28 29 30 31 32
890
FTUS43 KLOT 151501 AAB
TAFMDW
TAF AMD
KMDW 151501Z 1515/1618 23007KT 1/2SM FG SCT003 BKN200
      TEMPO 1515/1517 1/4SM FG VV002
     FM151800 28004KT 3/4SM BR OVC003
      TEMPO 1518/1522 1 1/2SM -RA BR OVC004
     FM152200 32005KT 2SM BR OVC006
     FM160100 33008KT 5SM BR OVC010
     FM160500 32014G19KT P6SM BKN015 OVC025
     FM161200 32012KT P6SM SCT025=

USA.gov is the U.S. government's official web portal to all federal, state and local government web resources and services.